createdAt,value
2019-03-08T00:01:56.869Z,2.17
2019-03-08T00:04:27.017Z,1.80
2019-03-08T00:06:57.645Z,1.57
2019-03-08T00:09:27.861Z,1.70
2019-03-08T00:11:57.998Z,1.53
2019-03-08T00:14:29.941Z,2.17
2019-03-08T00:17:00.099Z,1.50
2019-03-08T00:19:30.660Z,1.70
2019-03-08T00:22:01.056Z,2.10
2019-03-08T00:24:32.524Z,1.50
2019-03-08T00:27:02.794Z,1.57
2019-03-08T00:29:33.024Z,2.23
2019-03-08T00:32:03.110Z,1.70
2019-03-08T00:34:33.096Z,1.40
2019-03-08T00:37:03.286Z,2.17
2019-03-08T00:39:33.327Z,1.70
2019-03-08T00:42:03.353Z,1.83
2019-03-08T00:44:33.441Z,1.57
2019-03-08T00:47:03.605Z,1.80
2019-03-08T00:49:33.605Z,1.80
2019-03-08T00:52:04.025Z,1.83
2019-03-08T00:54:34.133Z,1.60
2019-03-08T00:57:04.128Z,1.40
2019-03-08T00:59:34.127Z,1.70
2019-03-08T01:02:04.232Z,1.47
2019-03-08T01:04:34.278Z,1.70
2019-03-08T01:07:04.632Z,1.60
2019-03-08T01:09:35.027Z,1.80
2019-03-08T01:12:05.134Z,2.00
2019-03-08T01:14:35.344Z,1.80
2019-03-08T01:17:05.601Z,1.40
2019-03-08T01:19:35.914Z,1.40
2019-03-08T01:22:05.888Z,1.73
2019-03-08T01:24:35.956Z,1.90
2019-03-08T01:27:06.235Z,1.40
2019-03-08T01:29:36.317Z,1.27
2019-03-08T01:32:06.305Z,1.57
2019-03-08T01:34:36.668Z,1.50
2019-03-08T01:37:06.756Z,1.20
2019-03-08T01:39:36.810Z,1.50
2019-03-08T01:42:07.105Z,1.50
2019-03-08T01:44:37.153Z,1.17
2019-03-08T01:47:08.169Z,2.00
2019-03-08T01:49:38.205Z,1.47
2019-03-08T01:52:08.257Z,1.90
2019-03-08T01:54:38.298Z,1.50
2019-03-08T01:57:08.242Z,1.40
2019-03-08T01:59:38.634Z,1.53
2019-03-08T02:02:10.478Z,1.50
2019-03-08T02:04:40.686Z,1.73
2019-03-08T02:07:11.300Z,1.20
2019-03-08T02:09:41.329Z,1.20
2019-03-08T02:12:11.678Z,1.30
2019-03-08T02:14:42.013Z,1.40
2019-03-08T02:17:12.186Z,1.60
2019-03-08T02:19:42.488Z,1.33
2019-03-08T02:22:12.480Z,1.50
2019-03-08T02:24:42.879Z,1.43
2019-03-08T02:27:13.382Z,1.10
2019-03-08T02:29:43.962Z,2.13
2019-03-08T02:32:14.071Z,1.17
2019-03-08T02:34:44.325Z,1.30
2019-03-08T02:37:14.335Z,1.33
2019-03-08T02:39:44.350Z,1.03
2019-03-08T02:42:15.357Z,1.70
2019-03-08T02:44:46.506Z,1.27
2019-03-08T02:47:17.265Z,1.53
2019-03-08T02:49:47.344Z,1.07
2019-03-08T02:52:17.448Z,1.00
2019-03-08T02:54:47.719Z,1.13
2019-03-08T02:57:17.973Z,1.00
2019-03-08T02:59:47.978Z,0.90
2019-03-08T03:02:19.254Z,1.40
2019-03-08T03:04:50.381Z,1.20
2019-03-08T03:07:20.565Z,1.20
2019-03-08T03:09:50.578Z,1.33
2019-03-08T03:12:20.788Z,1.13
2019-03-08T03:14:50.957Z,1.23
2019-03-08T03:17:20.952Z,1.20
2019-03-08T03:19:51.016Z,1.10
2019-03-08T03:22:21.289Z,1.30
2019-03-08T03:24:51.850Z,1.13
2019-03-08T03:27:22.067Z,1.20
2019-03-08T03:29:52.309Z,1.10
2019-03-08T03:32:22.337Z,0.90
2019-03-08T03:34:53.042Z,1.30
2019-03-08T03:37:23.729Z,1.40
2019-03-08T03:39:53.812Z,0.93
2019-03-08T03:42:24.365Z,1.20
2019-03-08T03:44:54.845Z,1.23
2019-03-08T03:47:25.847Z,1.60
2019-03-08T03:49:55.813Z,1.40
2019-03-08T03:52:26.228Z,1.20
2019-03-08T03:54:57.712Z,1.13
2019-03-08T03:57:27.797Z,1.10
2019-03-08T03:59:57.798Z,1.17
2019-03-08T04:02:28.774Z,1.80
2019-03-08T04:04:59.092Z,1.70
2019-03-08T04:07:29.566Z,1.23
2019-03-08T04:09:59.520Z,1.40
2019-03-08T04:12:29.777Z,1.37
2019-03-08T04:15:00.032Z,1.17
2019-03-08T04:17:30.217Z,1.50
2019-03-08T04:20:00.208Z,1.20
2019-03-08T04:22:30.357Z,1.37
2019-03-08T04:25:00.861Z,1.20
2019-03-08T04:27:31.102Z,1.37
2019-03-08T04:30:01.073Z,1.77
2019-03-08T04:32:31.294Z,2.10
2019-03-08T04:35:01.522Z,1.87
2019-03-08T04:37:32.017Z,1.60
2019-03-08T04:40:02.036Z,1.60
2019-03-08T04:42:32.486Z,1.70
2019-03-08T04:45:02.637Z,1.10
2019-03-08T04:47:32.872Z,1.60
2019-03-08T04:50:03.278Z,1.60
2019-03-08T04:52:33.296Z,1.53
2019-03-08T04:55:03.503Z,1.13
2019-03-08T04:57:33.750Z,1.27
2019-03-08T05:00:03.946Z,1.10
2019-03-08T05:02:34.681Z,1.33
2019-03-08T05:05:04.973Z,1.17
2019-03-08T05:07:34.961Z,1.10
2019-03-08T05:10:05.497Z,1.40
2019-03-08T05:12:35.985Z,1.80
2019-03-08T05:15:06.184Z,1.57
2019-03-08T05:17:36.536Z,1.87
2019-03-08T05:20:07.196Z,1.47
2019-03-08T05:22:37.256Z,2.97
2019-03-08T05:25:07.835Z,6.40
2019-03-08T05:27:38.137Z,4.20
2019-03-08T05:30:08.837Z,3.03
2019-03-08T05:32:38.829Z,2.03
2019-03-08T05:35:09.112Z,3.17
2019-03-08T05:37:39.120Z,3.17
2019-03-08T05:40:09.569Z,3.00
2019-03-08T05:42:39.633Z,3.83
2019-03-08T05:45:09.891Z,3.60
2019-03-08T05:47:39.932Z,4.10
2019-03-08T05:50:10.131Z,3.13
2019-03-08T05:52:40.147Z,3.23
2019-03-08T05:55:10.317Z,5.63
2019-03-08T05:57:40.508Z,3.83
2019-03-08T06:00:11.468Z,6.77
2019-03-08T06:02:41.805Z,9.87
2019-03-08T06:05:11.912Z,7.27
2019-03-08T06:07:42.463Z,8.10
2019-03-08T06:10:32.116Z,15.37
2019-03-08T06:13:21.616Z,6.80
2019-03-08T06:15:51.652Z,15.27
2019-03-08T06:18:21.694Z,10.07
2019-03-08T06:20:51.760Z,5.37
2019-03-08T06:23:21.805Z,2.60
2019-03-08T06:25:52.186Z,3.90
2019-03-08T06:28:22.365Z,3.87
2019-03-08T06:30:53.310Z,5.23
2019-03-08T06:33:23.392Z,6.23
2019-03-08T06:35:53.397Z,14.10
2019-03-08T06:38:23.514Z,11.27
2019-03-08T06:40:54.673Z,12.50
2019-03-08T06:43:24.716Z,12.60
2019-03-08T06:45:54.844Z,7.33
2019-03-08T06:48:24.799Z,8.00
2019-03-08T06:50:55.115Z,13.23
2019-03-08T06:53:25.101Z,11.37
2019-03-08T06:55:55.789Z,14.87
2019-03-08T06:58:35.829Z,15.07
2019-03-08T07:01:15.829Z,8.07
2019-03-08T07:03:46.026Z,6.57
2019-03-08T07:06:16.060Z,5.70
2019-03-08T07:08:46.088Z,13.20
2019-03-08T07:11:16.137Z,12.90
2019-03-08T07:13:46.167Z,9.50
2019-03-08T07:16:16.680Z,10.43
2019-03-08T07:18:46.956Z,8.37
2019-03-08T07:21:39.345Z,7.27
2019-03-08T07:24:40.326Z,16.77
2019-03-08T07:27:31.934Z,21.47
2019-03-08T07:30:14.840Z,23.10
2019-03-08T07:32:53.477Z,17.13
2019-03-08T07:35:41.310Z,12.77
2019-03-08T07:38:29.533Z,10.47
2019-03-08T07:41:14.296Z,12.43
2019-03-08T07:44:12.188Z,8.70
2019-03-08T07:46:59.976Z,6.03
2019-03-08T07:49:44.453Z,5.60
2019-03-08T07:52:33.498Z,4.60
2019-03-08T07:55:10.520Z,12.00
2019-03-08T07:58:05.005Z,11.40
2019-03-08T08:01:01.445Z,7.77
2019-03-08T08:03:42.680Z,3.67
2019-03-08T08:06:26.781Z,3.20
2019-03-08T08:09:09.333Z,3.23
2019-03-08T08:11:56.416Z,3.10
2019-03-08T08:15:00.376Z,3.00
2019-03-08T08:17:43.033Z,2.10
2019-03-08T08:20:42.233Z,3.60
2019-03-08T08:23:34.024Z,2.33
2019-03-08T08:26:33.253Z,2.63
2019-03-08T08:29:22.092Z,2.10
2019-03-08T08:32:11.438Z,2.50
2019-03-08T08:34:59.183Z,2.67
2019-03-08T08:38:06.342Z,2.90
2019-03-08T08:40:51.318Z,2.60
2019-03-08T08:43:40.754Z,2.60
2019-03-08T08:46:24.581Z,3.20
2019-03-08T08:49:13.545Z,3.07
2019-03-08T08:52:02.594Z,2.53
2019-03-08T08:54:42.282Z,3.30
2019-03-08T08:57:33.918Z,2.73
2019-03-08T09:00:29.062Z,2.40
2019-03-08T09:03:16.784Z,2.47
2019-03-08T09:06:11.622Z,4.47
2019-03-08T09:09:09.774Z,3.97
2019-03-08T09:11:57.345Z,5.10
2019-03-08T09:14:34.837Z,5.50
2019-03-08T09:17:21.736Z,4.07
2019-03-08T09:19:59.769Z,4.40
2019-03-08T09:22:34.596Z,3.47
2019-03-08T09:25:18.992Z,4.43
2019-03-08T09:28:12.373Z,3.47
2019-03-08T09:30:58.064Z,3.57
2019-03-08T09:33:55.937Z,3.43
2019-03-08T09:36:41.724Z,3.20
2019-03-08T09:39:27.349Z,4.10
2019-03-08T09:42:02.541Z,4.00
2019-03-08T09:44:42.233Z,3.70
2019-03-08T09:47:23.544Z,4.37
2019-03-08T09:50:15.802Z,4.37
2019-03-08T09:53:13.647Z,3.77
2019-03-08T09:55:54.598Z,3.33
2019-03-08T09:58:31.843Z,4.30
2019-03-08T10:01:26.803Z,3.77
2019-03-08T10:04:04.530Z,4.13
2019-03-08T10:06:59.639Z,4.27
2019-03-08T10:10:06.929Z,4.37
2019-03-08T10:12:43.542Z,4.77
2019-03-08T10:15:31.025Z,3.90
2019-03-08T10:18:19.144Z,3.97
2019-03-08T10:21:06.726Z,4.40
2019-03-08T10:23:54.097Z,3.90
2019-03-08T10:26:42.893Z,4.03
2019-03-08T10:29:30.266Z,3.73
2019-03-08T10:32:12.733Z,3.60
2019-03-08T10:35:07.574Z,3.67
2019-03-08T10:37:53.544Z,3.50
2019-03-08T10:40:43.984Z,3.60
2019-03-08T10:43:48.645Z,3.40
2019-03-08T10:46:37.886Z,3.67
2019-03-08T10:49:29.765Z,3.33
2019-03-08T10:52:21.543Z,3.40
2019-03-08T10:55:09.124Z,4.30
2019-03-08T10:58:10.081Z,4.20
2019-03-08T11:00:53.365Z,3.23
2019-03-08T11:03:30.813Z,3.70
2019-03-08T11:06:06.924Z,3.70
2019-03-08T11:08:51.920Z,3.80
2019-03-08T11:11:39.639Z,4.10
2019-03-08T11:14:27.868Z,4.30
2019-03-08T11:17:15.313Z,3.53
2019-03-08T11:19:54.684Z,3.83
2019-03-08T11:22:37.545Z,3.97
2019-03-08T11:25:22.349Z,3.33
2019-03-08T11:28:21.410Z,3.73
2019-03-08T11:31:13.196Z,3.93
2019-03-08T11:33:59.638Z,3.53
2019-03-08T11:36:37.577Z,3.77
2019-03-08T11:39:41.195Z,3.97
2019-03-08T11:42:39.267Z,3.37
2019-03-08T11:45:28.755Z,3.53
2019-03-08T11:48:17.141Z,3.40
2019-03-08T11:51:09.561Z,3.47
2019-03-08T11:53:56.832Z,3.77
2019-03-08T11:56:57.598Z,3.77
2019-03-08T11:59:52.360Z,3.40
2019-03-08T12:02:40.135Z,4.20
2019-03-08T12:05:24.799Z,3.20
2019-03-08T12:08:08.575Z,3.50
2019-03-08T12:11:03.433Z,3.20
2019-03-08T12:13:55.292Z,3.40
2019-03-08T12:16:44.144Z,3.47
2019-03-08T12:19:28.675Z,3.37
2019-03-08T12:22:09.840Z,4.13
2019-03-08T12:24:58.731Z,3.33
2019-03-08T12:27:46.320Z,3.83
2019-03-08T12:30:32.496Z,3.70
2019-03-08T12:33:30.860Z,3.53
2019-03-08T12:36:25.712Z,4.27
2019-03-08T12:39:07.269Z,4.73
2019-03-08T12:41:55.014Z,3.80
2019-03-08T12:44:34.080Z,3.50
2019-03-08T12:47:23.317Z,3.60
2019-03-08T12:50:02.973Z,3.60
2019-03-08T12:52:57.750Z,4.60
2019-03-08T12:55:58.066Z,3.60
2019-03-08T12:58:45.506Z,4.03
2019-03-08T13:01:31.840Z,4.27
2019-03-08T13:04:26.982Z,3.70
2019-03-08T13:07:15.267Z,3.93
2019-03-08T13:09:47.121Z,3.30
2019-03-08T13:12:17.508Z,3.83
2019-03-08T13:14:47.594Z,3.97
2019-03-08T13:17:17.943Z,3.80
2019-03-08T13:19:48.258Z,3.90
2019-03-08T13:22:18.212Z,3.70
2019-03-08T13:24:48.616Z,3.57
2019-03-08T13:27:18.622Z,3.70
2019-03-08T13:29:48.652Z,3.43
2019-03-08T13:32:18.704Z,4.07
2019-03-08T13:34:48.705Z,3.50
2019-03-08T13:37:18.740Z,3.53
2019-03-08T13:39:48.764Z,3.60
2019-03-08T13:42:19.132Z,2.90
2019-03-08T13:44:49.409Z,3.03
2019-03-08T13:47:19.379Z,3.50
2019-03-08T13:49:49.558Z,3.00
2019-03-08T13:52:19.524Z,3.17
2019-03-08T13:54:49.524Z,3.67
2019-03-08T13:57:19.730Z,3.23
2019-03-08T13:59:49.780Z,3.20
2019-03-08T14:02:19.910Z,3.50
2019-03-08T14:04:50.705Z,2.80
2019-03-08T14:07:20.732Z,2.47
2019-03-08T14:09:50.780Z,2.97
2019-03-08T14:12:21.105Z,3.40
2019-03-08T14:14:51.243Z,3.33
2019-03-08T14:17:21.632Z,4.13
2019-03-08T14:19:51.724Z,4.70
2019-03-08T14:22:22.264Z,7.47
2019-03-08T14:24:52.473Z,7.27
2019-03-08T14:27:22.462Z,8.70
2019-03-08T14:29:55.312Z,8.43
2019-03-08T14:32:25.270Z,9.07
2019-03-08T14:34:55.584Z,9.03
2019-03-08T14:37:25.845Z,9.37
2019-03-08T14:39:55.941Z,9.63
2019-03-08T14:42:42.150Z,8.90
2019-03-08T14:45:35.233Z,9.60
2019-03-08T14:48:06.010Z,11.77
2019-03-08T14:50:37.433Z,10.77
2019-03-08T14:53:07.533Z,10.33
2019-03-08T14:55:37.613Z,11.13
2019-03-08T14:58:07.778Z,10.63
2019-03-08T15:00:37.829Z,11.90
2019-03-08T15:03:08.511Z,11.70
2019-03-08T15:05:38.941Z,11.07
2019-03-08T15:08:09.406Z,10.53
2019-03-08T15:10:39.976Z,10.97
2019-03-08T15:13:11.313Z,13.10
2019-03-08T15:15:41.603Z,11.00
2019-03-08T15:18:11.752Z,11.53
2019-03-08T15:20:41.977Z,11.67
2019-03-08T15:23:13.335Z,12.03
2019-03-08T15:25:45.222Z,12.43
2019-03-08T15:28:16.247Z,11.73
2019-03-08T15:30:47.060Z,12.23
2019-03-08T15:33:17.422Z,12.47
2019-03-08T15:35:47.433Z,12.30
2019-03-08T15:38:17.630Z,12.57
2019-03-08T15:40:48.846Z,12.53
2019-03-08T15:43:19.086Z,11.73
2019-03-08T15:45:49.089Z,11.70
2019-03-08T15:48:19.183Z,13.03
2019-03-08T15:50:49.566Z,12.83
2019-03-08T15:53:19.870Z,12.50
2019-03-08T15:55:53.264Z,12.93
2019-03-08T15:58:23.537Z,13.33
2019-03-08T16:00:53.534Z,12.60
2019-03-08T16:03:24.466Z,13.80
2019-03-08T16:05:54.521Z,11.27
2019-03-08T16:08:24.625Z,12.87
2019-03-08T16:10:55.144Z,13.60
2019-03-08T16:13:25.132Z,12.60
2019-03-08T16:15:55.370Z,11.53
2019-03-08T16:18:25.737Z,11.63
2019-03-08T16:20:56.371Z,11.50
2019-03-08T16:23:26.685Z,11.40
2019-03-08T16:25:56.910Z,11.87
2019-03-08T16:28:26.853Z,9.73
2019-03-08T16:31:03.262Z,10.93
2019-03-08T16:33:38.545Z,11.37
2019-03-08T16:36:28.269Z,11.60
2019-03-08T16:39:06.487Z,10.47
2019-03-08T16:41:53.723Z,11.27
2019-03-08T16:44:56.421Z,12.30
2019-03-08T16:47:43.700Z,11.10
2019-03-08T16:50:22.246Z,10.23
2019-03-08T16:52:59.968Z,10.87
2019-03-08T16:55:45.276Z,10.57
2019-03-08T16:58:40.141Z,10.17
2019-03-08T17:01:30.021Z,10.70
2019-03-08T17:04:21.001Z,9.23
2019-03-08T17:06:59.254Z,11.50
2019-03-08T17:09:48.090Z,11.77
2019-03-08T17:12:40.112Z,9.47
2019-03-08T17:15:27.925Z,10.17
2019-03-08T17:18:12.043Z,11.30
2019-03-08T17:21:04.067Z,10.00
2019-03-08T17:23:55.868Z,11.67
2019-03-08T17:26:43.973Z,11.07
2019-03-08T17:29:19.445Z,11.77
2019-03-08T17:32:14.304Z,10.73
2019-03-08T17:35:09.769Z,10.23
2019-03-08T17:37:58.760Z,12.60
2019-03-08T17:40:47.603Z,10.03
2019-03-08T17:43:33.992Z,11.20
2019-03-08T17:46:26.563Z,12.63
2019-03-08T17:49:15.423Z,14.17
2019-03-08T17:52:13.373Z,12.17
2019-03-08T17:54:55.877Z,8.37
2019-03-08T17:57:43.451Z,9.10
2019-03-08T18:00:23.458Z,10.47
2019-03-08T18:03:11.022Z,13.97
2019-03-08T18:06:06.329Z,23.07
2019-03-08T18:09:10.145Z,17.27
2019-03-08T18:11:57.728Z,10.37
2019-03-08T18:14:59.061Z,13.40
2019-03-08T18:17:39.190Z,13.47
2019-03-08T18:20:43.438Z,17.67
2019-03-08T18:23:25.157Z,12.13
2019-03-08T18:26:17.178Z,11.70
2019-03-08T18:29:06.107Z,10.87
2019-03-08T18:31:54.047Z,12.50
2019-03-08T18:34:47.510Z,9.30
2019-03-08T18:37:42.624Z,8.83
2019-03-08T18:40:50.715Z,7.33
2019-03-08T18:43:58.250Z,9.37
2019-03-08T18:46:34.950Z,7.83
2019-03-08T18:49:32.887Z,7.90
2019-03-08T18:52:21.664Z,7.80
2019-03-08T18:55:25.841Z,9.70
2019-03-08T18:58:10.436Z,11.40
2019-03-08T19:01:02.232Z,9.33
2019-03-08T19:03:49.842Z,8.37
2019-03-08T19:06:36.816Z,8.30
2019-03-08T19:09:25.216Z,8.83
2019-03-08T19:12:32.860Z,7.97
2019-03-08T19:15:26.713Z,8.63
2019-03-08T19:18:22.831Z,8.70
2019-03-08T19:21:15.096Z,8.37
2019-03-08T19:24:19.501Z,6.90
2019-03-08T19:27:21.570Z,7.30
2019-03-08T19:30:03.752Z,8.30
2019-03-08T19:32:59.359Z,7.87
2019-03-08T19:35:43.354Z,7.33
2019-03-08T19:38:32.082Z,8.17
2019-03-08T19:41:09.503Z,6.97
2019-03-08T19:44:04.276Z,7.20
2019-03-08T19:46:53.567Z,7.80
2019-03-08T19:49:55.969Z,6.60
2019-03-08T19:52:53.776Z,6.80
2019-03-08T19:55:38.045Z,6.40
2019-03-08T19:58:33.003Z,6.83
2019-03-08T20:01:20.772Z,7.50
2019-03-08T20:04:01.377Z,7.30
2019-03-08T20:06:49.169Z,7.03
2019-03-08T20:09:37.172Z,7.63
2019-03-08T20:12:28.906Z,7.10
2019-03-08T20:15:16.897Z,7.03
2019-03-08T20:18:05.510Z,8.47
2019-03-08T20:20:51.901Z,7.80
2019-03-08T20:23:41.570Z,7.50
2019-03-08T20:26:48.498Z,7.90
2019-03-08T20:29:37.360Z,7.13
2019-03-08T20:32:23.147Z,7.00
2019-03-08T20:35:14.752Z,7.43
2019-03-08T20:38:02.267Z,5.47
2019-03-08T20:40:51.130Z,6.70
2019-03-08T20:43:49.253Z,5.80
2019-03-08T20:46:35.160Z,5.97
2019-03-08T20:49:05.298Z,5.70
2019-03-08T20:51:35.406Z,6.00
2019-03-08T20:54:06.669Z,6.33
2019-03-08T20:56:37.080Z,6.23
2019-03-08T20:59:07.701Z,6.50
2019-03-08T21:01:38.928Z,5.80
2019-03-08T21:04:09.567Z,6.00
2019-03-08T21:06:39.695Z,5.53
2019-03-08T21:09:11.575Z,5.23
2019-03-08T21:11:41.864Z,5.20
2019-03-08T21:14:14.312Z,5.40
2019-03-08T21:16:44.509Z,5.50
2019-03-08T21:19:14.524Z,5.67
2019-03-08T21:21:45.005Z,6.00
2019-03-08T21:24:15.913Z,6.53
2019-03-08T21:26:46.020Z,6.80
2019-03-08T21:29:16.201Z,6.03
2019-03-08T21:31:47.080Z,5.30
2019-03-08T21:34:18.821Z,4.43
2019-03-08T21:36:49.277Z,4.70
2019-03-08T21:39:19.545Z,5.33
2019-03-08T21:41:49.873Z,5.10
2019-03-08T21:44:20.078Z,4.70
2019-03-08T21:46:50.408Z,5.30
2019-03-08T21:49:20.467Z,5.23
2019-03-08T21:51:50.639Z,5.43
2019-03-08T21:54:21.597Z,4.27
2019-03-08T21:56:51.629Z,4.10
2019-03-08T21:59:22.225Z,4.33
2019-03-08T22:01:52.339Z,4.00
2019-03-08T22:04:41.518Z,4.23
2019-03-08T22:07:11.905Z,3.40
2019-03-08T22:10:00.924Z,3.97
2019-03-08T22:12:31.429Z,3.80
2019-03-08T22:15:01.520Z,3.80
2019-03-08T22:17:31.532Z,3.60
2019-03-08T22:20:01.565Z,4.23
2019-03-08T22:22:31.625Z,3.57
2019-03-08T22:25:01.718Z,3.30
2019-03-08T22:27:31.725Z,2.93
2019-03-08T22:30:02.230Z,3.83
2019-03-08T22:32:33.359Z,3.80
2019-03-08T22:35:06.269Z,3.87
2019-03-08T22:37:37.141Z,3.13
2019-03-08T22:40:07.732Z,3.77
2019-03-08T22:42:39.917Z,3.20
2019-03-08T22:45:11.893Z,3.73
2019-03-08T22:47:42.149Z,3.27
2019-03-08T22:50:12.689Z,2.83
2019-03-08T22:52:42.773Z,3.07
2019-03-08T22:55:12.817Z,2.83
2019-03-08T22:57:42.959Z,3.37
2019-03-08T23:00:30.563Z,2.97
2019-03-08T23:03:00.793Z,3.00
2019-03-08T23:05:31.119Z,3.37
2019-03-08T23:08:01.148Z,3.23
2019-03-08T23:10:31.639Z,3.60
2019-03-08T23:13:02.457Z,2.83
2019-03-08T23:15:32.452Z,2.77
2019-03-08T23:18:02.583Z,4.10
2019-03-08T23:20:32.574Z,2.77
2019-03-08T23:23:02.640Z,3.17
2019-03-08T23:25:33.144Z,3.20
2019-03-08T23:28:20.700Z,3.57
2019-03-08T23:30:53.132Z,3.30
2019-03-08T23:33:23.389Z,2.63
2019-03-08T23:35:54.112Z,3.20
2019-03-08T23:38:24.167Z,3.73
2019-03-08T23:40:54.146Z,3.07
2019-03-08T23:43:24.376Z,3.73
2019-03-08T23:45:54.893Z,3.60
2019-03-08T23:48:24.959Z,3.40
2019-03-08T23:50:55.043Z,3.40
2019-03-08T23:53:25.085Z,3.57
2019-03-08T23:55:55.133Z,3.47
2019-03-08T23:58:25.532Z,3.83
